createdAt,value
2023-04-07T00:00:09.171Z,81.10
2023-04-07T00:02:37.051Z,81.74
2023-04-07T00:05:05.255Z,82.26
2023-04-07T00:07:39.467Z,82.76
2023-04-07T00:10:14.370Z,82.08
2023-04-07T00:12:42.476Z,82.15
2023-04-07T00:15:11.715Z,81.24
2023-04-07T00:17:39.503Z,82.14
2023-04-07T00:20:09.065Z,82.19
2023-04-07T00:22:36.863Z,81.60
2023-04-07T00:25:05.446Z,81.70
2023-04-07T00:27:34.670Z,81.89
2023-04-07T00:30:02.561Z,82.95
2023-04-07T00:32:30.338Z,81.97
2023-04-07T00:34:58.164Z,81.16
2023-04-07T00:37:30.405Z,81.99
2023-04-07T00:39:59.259Z,81.52
2023-04-07T00:42:27.284Z,81.81
2023-04-07T00:44:56.658Z,81.55
2023-04-07T00:47:24.623Z,81.28
2023-04-07T00:49:52.636Z,81.85
2023-04-07T00:52:27.264Z,81.67
2023-04-07T00:54:55.878Z,81.04
2023-04-07T00:57:23.906Z,82.25
2023-04-07T00:59:52.926Z,82.24
2023-04-07T01:02:31.282Z,81.08
2023-04-07T01:05:14.125Z,81.68
2023-04-07T01:07:56.660Z,81.07
2023-04-07T01:10:36.979Z,80.96
2023-04-07T01:13:17.314Z,81.66
2023-04-07T01:15:51.572Z,81.65
2023-04-07T01:18:30.389Z,80.84
2023-04-07T01:21:05.776Z,80.37
2023-04-07T01:24:02.325Z,81.39
2023-04-07T01:26:33.666Z,81.48
2023-04-07T01:29:36.083Z,81.57
2023-04-07T01:32:08.330Z,81.31
2023-04-07T01:34:39.475Z,81.25
2023-04-07T01:37:09.754Z,80.70
2023-04-07T01:39:39.639Z,80.48
2023-04-07T01:42:08.454Z,80.21
2023-04-07T01:44:38.486Z,81.14
2023-04-07T01:47:07.595Z,81.47
2023-04-07T01:49:38.374Z,80.99
2023-04-07T01:52:08.616Z,80.91
2023-04-07T01:54:37.886Z,82.25
2023-04-07T01:57:05.897Z,81.68
2023-04-07T01:59:33.634Z,80.65
2023-04-07T02:02:03.117Z,80.78
2023-04-07T02:04:38.970Z,80.69
2023-04-07T02:07:12.755Z,80.40
2023-04-07T02:09:44.502Z,80.76
2023-04-07T02:12:16.840Z,80.50
2023-04-07T02:14:45.471Z,79.73
2023-04-07T02:17:17.120Z,81.68
2023-04-07T02:19:47.698Z,80.79
2023-04-07T02:22:18.212Z,80.56
2023-04-07T02:24:46.236Z,80.50
2023-04-07T02:27:14.298Z,80.10
2023-04-07T02:29:42.204Z,80.09
2023-04-07T02:32:10.181Z,80.07
2023-04-07T02:34:39.496Z,79.88
2023-04-07T02:37:07.315Z,79.80
2023-04-07T02:39:35.655Z,80.42
2023-04-07T02:42:03.434Z,80.16
2023-04-07T02:44:31.322Z,80.49
2023-04-07T02:46:59.220Z,80.96
2023-04-07T02:49:27.398Z,80.90
2023-04-07T02:51:56.660Z,81.58
2023-04-07T02:54:24.510Z,81.03
2023-04-07T02:56:52.243Z,80.33
2023-04-07T02:59:20.050Z,81.07
2023-04-07T03:01:47.963Z,81.29
2023-04-07T03:04:16.640Z,80.88
2023-04-07T03:06:44.424Z,80.13
2023-04-07T03:09:13.653Z,80.00
2023-04-07T03:11:41.712Z,79.38
2023-04-07T03:14:09.476Z,79.31
2023-04-07T03:16:37.304Z,79.62
2023-04-07T03:19:05.128Z,79.86
2023-04-07T03:21:33.773Z,79.21
2023-04-07T03:24:01.755Z,79.40
2023-04-07T03:26:30.962Z,78.77
2023-04-07T03:28:58.817Z,78.91
2023-04-07T03:31:26.827Z,78.50
2023-04-07T03:33:54.721Z,78.51
2023-04-07T03:36:22.924Z,78.17
2023-04-07T03:38:51.198Z,79.37
2023-04-07T03:41:21.090Z,79.57
2023-04-07T03:43:50.468Z,80.07
2023-04-07T03:46:20.532Z,79.05
2023-04-07T03:48:48.832Z,79.10
2023-04-07T03:51:17.335Z,78.38
2023-04-07T03:53:45.183Z,78.75
2023-04-07T03:56:13.112Z,78.86
2023-04-07T03:58:42.606Z,79.43
2023-04-07T04:01:11.846Z,79.07
2023-04-07T04:03:40.220Z,79.88
2023-04-07T04:06:08.766Z,79.59
2023-04-07T04:08:37.141Z,78.55
2023-04-07T04:11:05.042Z,78.95
2023-04-07T04:13:32.860Z,78.11
2023-04-07T04:16:00.870Z,78.11
2023-04-07T04:18:29.976Z,77.85
2023-04-07T04:20:57.884Z,78.16
2023-04-07T04:23:25.806Z,78.32
2023-04-07T04:25:53.579Z,78.32
2023-04-07T04:28:21.706Z,79.02
2023-04-07T04:30:49.628Z,79.02
2023-04-07T04:33:17.506Z,78.99
2023-04-07T04:35:47.877Z,78.82
2023-04-07T04:38:15.952Z,78.37
2023-04-07T04:40:43.795Z,78.49
2023-04-07T04:43:11.695Z,78.29
2023-04-07T04:45:39.450Z,78.01
2023-04-07T04:48:07.714Z,78.49
2023-04-07T04:50:37.074Z,78.84
2023-04-07T04:53:06.256Z,78.48
2023-04-07T04:55:34.093Z,78.38
2023-04-07T04:58:02.253Z,78.95
2023-04-07T05:00:30.113Z,78.77
2023-04-07T05:02:58.446Z,80.15
2023-04-07T05:05:26.427Z,79.52
2023-04-07T05:07:54.146Z,79.80
2023-04-07T05:10:23.319Z,78.63
2023-04-07T05:12:51.240Z,80.19
2023-04-07T05:15:19.734Z,81.67
2023-04-07T05:17:50.454Z,81.05
2023-04-07T05:20:18.689Z,80.05
2023-04-07T05:22:46.530Z,79.42
2023-04-07T05:25:14.400Z,79.04
2023-04-07T05:27:44.628Z,79.54
2023-04-07T05:30:13.588Z,79.54
2023-04-07T05:32:41.537Z,79.52
2023-04-07T05:35:10.877Z,79.67
2023-04-07T05:37:38.734Z,78.96
2023-04-07T05:40:08.482Z,79.52
2023-04-07T05:42:36.283Z,79.32
2023-04-07T05:45:06.763Z,78.94
2023-04-07T05:47:34.640Z,79.46
2023-04-07T05:50:02.669Z,79.17
2023-04-07T05:52:31.073Z,79.64
2023-04-07T05:54:58.914Z,79.06
2023-04-07T05:57:28.369Z,78.73
2023-04-07T05:59:56.500Z,78.53
2023-04-07T06:02:25.824Z,78.57
2023-04-07T06:04:53.885Z,78.32
2023-04-07T06:07:21.744Z,79.66
2023-04-07T06:09:49.664Z,78.72
2023-04-07T06:12:17.794Z,79.82
2023-04-07T06:14:53.665Z,79.99
2023-04-07T06:17:21.601Z,79.89
2023-04-07T06:19:51.154Z,79.48
2023-04-07T06:22:19.068Z,79.49
2023-04-07T06:24:46.814Z,79.20
2023-04-07T06:27:14.718Z,79.28
2023-04-07T06:29:42.893Z,80.15
2023-04-07T06:32:10.951Z,80.86
2023-04-07T06:34:38.748Z,79.19
2023-04-07T06:37:08.478Z,79.58
2023-04-07T06:39:38.158Z,79.93
2023-04-07T06:42:06.285Z,79.70
2023-04-07T06:44:34.135Z,80.49
2023-04-07T06:47:02.356Z,79.25
2023-04-07T06:49:30.138Z,80.08
2023-04-07T06:51:58.053Z,80.38
2023-04-07T06:54:27.315Z,79.26
2023-04-07T06:56:57.013Z,80.20
2023-04-07T06:59:25.106Z,79.02
2023-04-07T07:01:52.975Z,79.44
2023-04-07T07:04:22.816Z,79.26
2023-04-07T07:06:50.709Z,79.64
2023-04-07T07:09:18.992Z,79.38
2023-04-07T07:11:48.635Z,79.89
2023-04-07T07:14:18.686Z,79.41
2023-04-07T07:16:46.688Z,79.93
2023-04-07T07:19:15.041Z,80.00
2023-04-07T07:21:43.490Z,80.37
2023-04-07T07:24:11.359Z,79.60
2023-04-07T07:26:39.522Z,80.15
2023-04-07T07:29:08.915Z,79.50
2023-04-07T07:31:37.137Z,79.01
2023-04-07T07:34:05.178Z,78.66
2023-04-07T07:36:33.704Z,78.85
2023-04-07T07:39:01.830Z,78.42
2023-04-07T07:41:29.778Z,78.66
2023-04-07T07:43:57.725Z,78.08
2023-04-07T07:46:27.767Z,78.17
2023-04-07T07:48:55.678Z,80.19
2023-04-07T07:51:23.616Z,81.17
2023-04-07T07:53:51.712Z,80.93
2023-04-07T07:56:19.608Z,80.12
2023-04-07T07:58:47.497Z,80.59
2023-04-07T08:01:15.446Z,82.07
2023-04-07T08:03:45.814Z,81.84
2023-04-07T08:06:13.799Z,81.24
2023-04-07T08:08:41.655Z,80.51
2023-04-07T08:11:09.546Z,79.97
2023-04-07T08:13:37.313Z,79.95
2023-04-07T08:16:05.715Z,79.42
2023-04-07T08:18:33.817Z,78.61
2023-04-07T08:21:04.847Z,78.02
2023-04-07T08:23:32.942Z,78.20
2023-04-07T08:26:00.913Z,79.56
2023-04-07T08:28:28.721Z,78.89
2023-04-07T08:30:56.609Z,77.10
2023-04-07T08:33:24.584Z,76.81
2023-04-07T08:35:52.473Z,78.82
2023-04-07T08:38:22.202Z,79.33
2023-04-07T08:40:59.411Z,78.01
2023-04-07T08:43:30.130Z,78.35
2023-04-07T08:45:59.209Z,78.17
2023-04-07T08:48:33.873Z,77.53
2023-04-07T08:51:06.812Z,76.93
2023-04-07T08:53:43.236Z,76.33
2023-04-07T08:56:13.285Z,75.95
2023-04-07T08:58:42.545Z,76.23
2023-04-07T09:01:11.668Z,75.43
2023-04-07T09:03:40.477Z,73.57
2023-04-07T09:06:08.694Z,73.43
2023-04-07T09:08:38.001Z,75.25
2023-04-07T09:11:06.182Z,74.26
2023-04-07T09:13:34.322Z,76.40
2023-04-07T09:16:03.906Z,75.53
2023-04-07T09:18:31.902Z,76.54
2023-04-07T09:21:02.450Z,75.55
2023-04-07T09:23:33.711Z,76.36
2023-04-07T09:26:23.027Z,75.27
2023-04-07T09:28:53.593Z,75.69
2023-04-07T09:31:22.299Z,74.19
2023-04-07T09:33:51.769Z,75.97
2023-04-07T09:36:19.842Z,75.28
2023-04-07T09:38:47.665Z,75.30
2023-04-07T09:41:18.493Z,74.07
2023-04-07T09:43:48.407Z,73.28
2023-04-07T09:46:18.832Z,74.06
2023-04-07T09:48:48.481Z,73.46
2023-04-07T09:51:18.800Z,73.63
2023-04-07T09:53:49.600Z,74.06
2023-04-07T09:56:22.805Z,76.67
2023-04-07T09:58:53.091Z,75.33
2023-04-07T10:01:22.426Z,73.95
2023-04-07T10:03:51.608Z,73.51
2023-04-07T10:06:23.264Z,75.73
2023-04-07T10:08:52.525Z,74.54
2023-04-07T10:11:22.127Z,74.92
2023-04-07T10:13:50.509Z,73.71
2023-04-07T10:16:19.246Z,73.81
2023-04-07T10:18:47.786Z,73.32
2023-04-07T10:21:18.347Z,72.50
2023-04-07T10:24:00.168Z,71.88
2023-04-07T10:26:35.848Z,71.69
2023-04-07T10:29:10.213Z,72.34
2023-04-07T10:31:39.909Z,72.21
2023-04-07T10:34:07.942Z,71.60
2023-04-07T10:36:36.729Z,71.38
2023-04-07T10:39:24.205Z,71.47
2023-04-07T10:41:53.473Z,72.52
2023-04-07T10:44:48.837Z,71.77
2023-04-07T10:47:19.585Z,72.39
2023-04-07T10:50:19.936Z,72.80
2023-04-07T10:52:49.963Z,72.51
2023-04-07T10:55:37.658Z,73.25
2023-04-07T10:58:24.494Z,74.82
2023-04-07T11:01:21.752Z,73.90
2023-04-07T11:04:00.717Z,74.37
2023-04-07T11:06:29.008Z,73.87
2023-04-07T11:08:57.403Z,73.26
2023-04-07T11:11:42.927Z,73.50
2023-04-07T11:14:12.174Z,74.30
2023-04-07T11:16:43.394Z,74.33
2023-04-07T11:19:11.806Z,73.45
2023-04-07T11:21:40.294Z,72.74
2023-04-07T11:24:08.060Z,72.81
2023-04-07T11:26:40.733Z,73.15
2023-04-07T11:29:09.076Z,73.65
2023-04-07T11:31:40.023Z,73.53
2023-04-07T11:34:08.911Z,72.97
2023-04-07T11:36:42.596Z,73.35
2023-04-07T11:39:22.309Z,72.28
2023-04-07T11:41:52.048Z,71.98
2023-04-07T11:44:20.694Z,72.42
2023-04-07T11:47:04.840Z,71.57
2023-04-07T11:49:32.833Z,71.02
2023-04-07T11:52:03.426Z,71.80
2023-04-07T11:54:42.980Z,71.14
2023-04-07T11:57:12.643Z,71.79
2023-04-07T11:59:41.822Z,71.62
2023-04-07T12:02:11.222Z,73.25
2023-04-07T12:04:40.803Z,73.36
2023-04-07T12:07:11.203Z,72.50
2023-04-07T12:09:39.947Z,71.59
2023-04-07T12:12:10.532Z,73.15
2023-04-07T12:14:38.907Z,74.00
2023-04-07T12:17:08.099Z,72.64
2023-04-07T12:19:39.440Z,72.40
2023-04-07T12:22:08.854Z,71.99
2023-04-07T12:24:36.717Z,72.56
2023-04-07T12:27:04.883Z,72.08
2023-04-07T12:29:32.739Z,70.64
2023-04-07T12:32:00.921Z,68.92
2023-04-07T12:34:28.711Z,68.47
2023-04-07T12:36:58.402Z,69.52
2023-04-07T12:39:26.759Z,70.02
2023-04-07T12:41:54.679Z,70.01
2023-04-07T12:44:22.443Z,69.14
2023-04-07T12:46:50.543Z,70.69
2023-04-07T12:49:18.617Z,70.66
2023-04-07T12:51:48.869Z,73.23
2023-04-07T12:54:19.500Z,70.53
2023-04-07T12:56:47.790Z,70.85
2023-04-07T12:59:15.943Z,69.19
2023-04-07T13:01:43.997Z,68.23
2023-04-07T13:04:12.420Z,69.33
2023-04-07T13:06:40.428Z,69.51
2023-04-07T13:09:08.302Z,68.77
2023-04-07T13:11:37.572Z,68.50
2023-04-07T13:14:06.170Z,68.64
2023-04-07T13:16:37.240Z,67.70
2023-04-07T13:19:05.403Z,67.14
2023-04-07T13:24:04.431Z,66.30
2023-04-07T13:26:32.378Z,67.20
2023-04-07T13:29:01.526Z,66.37
2023-04-07T13:31:30.389Z,66.06
2023-04-07T13:33:59.376Z,67.28
2023-04-07T13:36:28.471Z,67.31
2023-04-07T13:38:56.863Z,66.94
2023-04-07T13:41:24.765Z,66.85
2023-04-07T13:43:52.601Z,67.79
2023-04-07T13:46:28.638Z,66.15
2023-04-07T13:48:57.003Z,66.18
2023-04-07T13:51:24.885Z,66.40
2023-04-07T13:53:52.679Z,65.94
2023-04-07T13:56:22.144Z,66.80
2023-04-07T13:58:52.414Z,64.46
2023-04-07T14:01:21.672Z,64.49
2023-04-07T14:03:50.483Z,65.72
2023-04-07T14:06:18.706Z,64.54
2023-04-07T14:08:46.563Z,64.63
2023-04-07T14:11:18.527Z,65.00
2023-04-07T14:13:46.787Z,65.65
2023-04-07T14:16:14.801Z,64.82
2023-04-07T14:18:44.120Z,63.78
2023-04-07T14:21:12.014Z,63.80
2023-04-07T14:23:39.808Z,63.93
2023-04-07T14:26:12.297Z,63.22
2023-04-07T14:28:40.709Z,63.89
2023-04-07T14:31:15.115Z,64.30
2023-04-07T14:33:44.464Z,62.00
2023-04-07T14:36:15.383Z,61.53
2023-04-07T14:38:43.279Z,62.04
2023-04-07T14:41:11.501Z,63.17
2023-04-07T14:43:39.817Z,60.85
2023-04-07T14:46:07.922Z,60.77
2023-04-07T14:48:37.955Z,61.16
2023-04-07T14:51:13.595Z,59.76
2023-04-07T14:53:43.301Z,60.19
2023-04-07T14:56:11.119Z,59.97
2023-04-07T14:58:40.435Z,59.70
2023-04-07T15:01:08.948Z,61.27
2023-04-07T15:03:46.824Z,60.52
2023-04-07T15:06:16.817Z,61.13
2023-04-07T15:08:44.780Z,61.49
2023-04-07T15:11:14.397Z,59.68
2023-04-07T15:13:42.230Z,60.66
2023-04-07T15:16:13.370Z,61.19
2023-04-07T15:18:44.461Z,60.66
2023-04-07T15:21:14.305Z,60.93
2023-04-07T15:23:43.680Z,61.31
2023-04-07T15:26:11.681Z,63.10
2023-04-07T15:28:40.060Z,62.45
2023-04-07T15:31:08.897Z,62.07
2023-04-07T15:33:38.069Z,62.97
2023-04-07T15:36:07.118Z,62.70
2023-04-07T15:38:35.206Z,62.27
2023-04-07T15:41:04.377Z,62.36
2023-04-07T15:43:32.323Z,61.93
2023-04-07T15:46:00.474Z,62.09
2023-04-07T15:48:28.369Z,60.70
2023-04-07T15:50:56.290Z,60.77
2023-04-07T15:53:24.116Z,61.70
2023-04-07T15:55:51.980Z,61.59
2023-04-07T15:58:21.138Z,61.16
2023-04-07T16:00:48.989Z,60.74
2023-04-07T16:03:19.699Z,59.62
2023-04-07T16:05:47.715Z,60.31
2023-04-07T16:08:15.987Z,58.69
2023-04-07T16:10:43.829Z,58.71
2023-04-07T16:13:11.829Z,60.44
2023-04-07T16:15:41.815Z,59.50
2023-04-07T16:18:12.737Z,58.91
2023-04-07T16:20:40.960Z,59.31
2023-04-07T16:23:08.880Z,61.43
2023-04-07T16:25:37.035Z,60.43
2023-04-07T16:28:04.898Z,59.16
2023-04-07T16:30:32.855Z,60.11
2023-04-07T16:33:10.607Z,59.71
2023-04-07T16:35:38.395Z,61.11
2023-04-07T16:38:06.950Z,59.77
2023-04-07T16:40:35.172Z,59.14
2023-04-07T16:43:02.988Z,59.31
2023-04-07T16:45:30.918Z,60.93
2023-04-07T16:47:58.987Z,61.25
2023-04-07T16:50:28.136Z,59.40
2023-04-07T16:52:57.570Z,59.77
2023-04-07T16:55:25.464Z,60.17
2023-04-07T16:57:53.351Z,59.76
2023-04-07T17:00:21.431Z,60.48
2023-04-07T17:02:50.274Z,61.69
2023-04-07T17:05:18.446Z,60.24
2023-04-07T17:07:48.606Z,60.38
2023-04-07T17:10:16.487Z,60.47
2023-04-07T17:12:44.363Z,59.42
2023-04-07T17:15:12.477Z,58.83
2023-04-07T17:17:40.502Z,60.20
2023-04-07T17:20:09.542Z,60.86
2023-04-07T17:22:37.666Z,61.08
2023-04-07T17:25:08.139Z,62.65
2023-04-07T17:27:44.142Z,61.63
2023-04-07T17:30:15.843Z,62.20
2023-04-07T17:32:43.671Z,62.29
2023-04-07T17:35:11.955Z,61.58
2023-04-07T17:37:39.783Z,62.44
2023-04-07T17:40:11.413Z,62.11
2023-04-07T17:42:39.777Z,61.21
2023-04-07T17:45:09.463Z,62.00
2023-04-07T17:47:38.851Z,62.21
2023-04-07T17:50:08.213Z,62.34
2023-04-07T17:52:36.275Z,61.90
2023-04-07T17:55:04.313Z,61.89
2023-04-07T17:57:33.548Z,62.59
2023-04-07T18:00:01.260Z,61.29
2023-04-07T18:02:29.352Z,62.60
2023-04-07T18:05:01.039Z,62.41
2023-04-07T18:07:29.481Z,63.29
2023-04-07T18:09:57.959Z,63.07
2023-04-07T18:12:25.738Z,63.58
2023-04-07T18:14:54.897Z,63.48
2023-04-07T18:17:22.745Z,63.63
2023-04-07T18:19:51.981Z,63.28
2023-04-07T18:22:19.807Z,63.12
2023-04-07T18:24:47.635Z,63.83
2023-04-07T18:27:23.926Z,63.78
2023-04-07T18:29:52.136Z,63.42
2023-04-07T18:32:21.417Z,64.41
2023-04-07T18:34:50.421Z,64.86
2023-04-07T18:37:18.172Z,64.25
2023-04-07T18:39:46.030Z,64.96
2023-04-07T18:42:13.844Z,64.27
2023-04-07T18:44:41.599Z,63.85
2023-04-07T18:47:09.378Z,64.43
2023-04-07T18:49:39.664Z,64.38
2023-04-07T18:52:08.504Z,65.15
2023-04-07T18:54:38.423Z,64.01
2023-04-07T18:57:12.646Z,64.70
2023-04-07T18:59:40.453Z,65.03
2023-04-07T19:02:08.902Z,65.38
2023-04-07T19:04:38.163Z,65.50
2023-04-07T19:07:06.115Z,65.15
2023-04-07T19:09:34.327Z,63.94
2023-04-07T19:12:02.237Z,66.20
2023-04-07T19:14:30.053Z,65.03
2023-04-07T19:16:58.368Z,66.02
2023-04-07T19:19:28.432Z,66.80
2023-04-07T19:21:57.567Z,66.50
2023-04-07T19:24:26.041Z,66.51
2023-04-07T19:26:53.951Z,66.90
2023-04-07T19:29:21.882Z,67.34
2023-04-07T19:31:51.284Z,67.26
2023-04-07T19:34:19.196Z,67.42
2023-04-07T19:36:47.107Z,67.70
2023-04-07T19:39:16.390Z,68.18
2023-04-07T19:41:44.144Z,68.72
2023-04-07T19:44:11.925Z,68.65
2023-04-07T19:46:39.632Z,68.52
2023-04-07T19:49:07.777Z,68.46
2023-04-07T19:51:36.499Z,68.55
2023-04-07T19:54:04.542Z,68.81
2023-04-07T19:56:35.186Z,68.67
2023-04-07T19:59:04.482Z,68.71
2023-04-07T20:01:32.695Z,68.86
2023-04-07T20:04:00.656Z,68.93
2023-04-07T20:06:33.450Z,69.52
2023-04-07T20:09:01.643Z,69.38
2023-04-07T20:11:29.382Z,69.31
2023-04-07T20:13:58.577Z,69.45
2023-04-07T20:16:27.262Z,70.15
2023-04-07T20:18:55.172Z,70.72
2023-04-07T20:21:23.453Z,70.52
2023-04-07T20:23:51.800Z,70.85
2023-04-07T20:26:19.576Z,71.05
2023-04-07T20:28:47.602Z,70.26
2023-04-07T20:31:18.315Z,70.46
2023-04-07T20:33:46.299Z,70.96
2023-04-07T20:36:14.185Z,70.92
2023-04-07T20:38:44.355Z,70.19
2023-04-07T20:41:13.559Z,70.23
2023-04-07T20:43:41.908Z,70.87
2023-04-07T20:46:10.071Z,71.33
2023-04-07T20:48:39.239Z,71.06
2023-04-07T20:51:07.591Z,71.40
2023-04-07T20:53:36.200Z,71.20
2023-04-07T20:56:04.868Z,71.98
2023-04-07T20:58:32.793Z,71.81
2023-04-07T21:01:02.081Z,71.31
2023-04-07T21:03:30.942Z,72.27
2023-04-07T21:06:00.347Z,73.17
2023-04-07T21:08:34.618Z,72.85
2023-04-07T21:11:04.500Z,72.57
2023-04-07T21:13:32.647Z,72.77
2023-04-07T21:16:03.707Z,72.92
2023-04-07T21:18:32.099Z,72.73
2023-04-07T21:21:02.934Z,72.55
2023-04-07T21:23:32.088Z,72.79
2023-04-07T21:26:03.304Z,72.62
2023-04-07T21:28:31.091Z,72.45
2023-04-07T21:30:59.222Z,72.19
2023-04-07T21:33:27.053Z,72.23
2023-04-07T21:35:55.491Z,72.13
2023-04-07T21:38:24.862Z,72.43
2023-04-07T21:40:52.675Z,72.24
2023-04-07T21:43:22.110Z,71.84
2023-04-07T21:45:50.152Z,72.85
2023-04-07T21:48:20.827Z,72.56
2023-04-07T21:50:48.703Z,72.19
2023-04-07T21:53:16.754Z,72.92
2023-04-07T21:55:54.285Z,73.56
2023-04-07T21:58:23.989Z,73.80
2023-04-07T22:00:51.835Z,72.64
2023-04-07T22:03:20.394Z,73.73
2023-04-07T22:05:48.335Z,74.32
2023-04-07T22:08:16.676Z,73.90
2023-04-07T22:10:44.878Z,74.09
2023-04-07T22:13:14.093Z,73.97
2023-04-07T22:15:41.971Z,74.18
2023-04-07T22:18:10.543Z,74.12
2023-04-07T22:20:39.022Z,76.23
2023-04-07T22:23:06.776Z,76.42
2023-04-07T22:25:34.683Z,77.50
2023-04-07T22:28:02.548Z,79.03
2023-04-07T22:30:31.832Z,78.43
2023-04-07T22:32:59.754Z,78.09
2023-04-07T22:35:27.614Z,78.25
2023-04-07T22:37:55.576Z,78.67
2023-04-07T22:40:23.663Z,78.63
2023-04-07T22:42:51.584Z,78.70
2023-04-07T22:45:20.988Z,78.04
2023-04-07T22:47:50.437Z,78.00
2023-04-07T22:50:18.519Z,77.54
2023-04-07T22:52:46.697Z,76.05
2023-04-07T22:55:15.248Z,75.54
2023-04-07T22:57:45.466Z,74.40
2023-04-07T23:00:15.424Z,74.69
2023-04-07T23:02:43.553Z,72.74
2023-04-07T23:05:12.878Z,72.38
2023-04-07T23:07:41.227Z,71.02
2023-04-07T23:10:10.443Z,70.64
2023-04-07T23:12:41.094Z,70.13
2023-04-07T23:15:09.948Z,69.67
2023-04-07T23:17:37.963Z,68.75
2023-04-07T23:20:07.309Z,68.67
2023-04-07T23:22:36.525Z,68.38
2023-04-07T23:25:04.876Z,68.11
2023-04-07T23:27:33.244Z,68.64
2023-04-07T23:30:01.551Z,67.56
2023-04-07T23:32:29.345Z,67.45
2023-04-07T23:34:57.116Z,67.29
2023-04-07T23:37:24.934Z,66.90
2023-04-07T23:39:54.068Z,65.98
2023-04-07T23:42:21.914Z,67.23
2023-04-07T23:44:49.766Z,67.51
2023-04-07T23:47:17.659Z,65.73
2023-04-07T23:49:45.409Z,66.12
2023-04-07T23:52:13.275Z,65.60
2023-04-07T23:54:40.996Z,65.07
2023-04-07T23:57:10.194Z,63.62
2023-04-07T23:59:37.994Z,63.85
